Time;durP1;ratioP1;P1;durP2;ratioP2;P2;SDS_P1;SDS_P2;PMS_P1;PMS_P2;Temp;Humidity;BMP_temperature;BMP_pressure;BME280_temperature;BME280_humidity;BME280_pressure;Samples;Min_cycle;Max_cycle;Signal;HPM_P1;HPM_P2
2021/10/08 00:01:03;;;;;;;9.10;3.83;;;10.40;99.90;;;;;;20741009;28;20038;-44
2021/10/08 00:11:04;;;;;;;11.73;4.50;;;10.50;99.90;;;;;;20780156;28;20046;-44
2021/10/08 00:21:07;;;;;;;10.77;4.45;;;10.30;99.90;;;;;;20801935;28;20494;-44
2021/10/08 00:31:08;;;;;;;9.57;3.75;;;10.30;99.90;;;;;;20804746;28;20064;-44
2021/10/08 00:41:10;;;;;;;8.45;4.18;;;10.20;99.90;;;;;;20801904;28;20390;-44
2021/10/08 00:51:12;;;;;;;11.35;3.80;;;10.10;99.90;;;;;;20730054;28;20053;-44
2021/10/08 01:01:16;;;;;;;8.90;3.40;;;10.10;99.90;;;;;;20750732;28;20034;-44
2021/10/08 01:11:21;;;;;;;7.35;2.90;;;10.00;99.90;;;;;;20727500;28;20038;-43
2021/10/08 01:21:22;;;;;;;6.97;2.92;;;9.90;99.90;;;;;;20784773;28;20368;-44
2021/10/08 01:31:23;;;;;;;13.63;2.97;;;9.70;99.90;;;;;;20783723;28;20046;-44
2021/10/08 01:41:24;;;;;;;6.10;2.63;;;9.60;99.90;;;;;;20792524;28;20073;-44
2021/10/08 01:51:26;;;;;;;6.88;2.58;;;9.60;99.90;;;;;;20796986;28;20046;-44
2021/10/08 02:01:27;;;;;;;6.53;2.75;;;9.50;99.90;;;;;;20719097;28;20045;-44
2021/10/08 02:11:28;;;;;;;6.07;2.38;;;9.60;99.90;;;;;;20728996;28;20043;-44
2021/10/08 02:21:29;;;;;;;5.72;2.92;;;9.40;99.90;;;;;;20771523;28;20037;-44
2021/10/08 02:31:31;;;;;;;8.20;2.30;;;9.20;99.90;;;;;;20797681;28;20042;-44
2021/10/08 02:41:32;;;;;;;5.97;2.78;;;9.20;99.90;;;;;;20791159;28;20049;-44
2021/10/08 02:51:35;;;;;;;6.70;2.45;;;9.20;99.90;;;;;;20806319;28;20048;-44
2021/10/08 03:01:37;;;;;;;6.22;2.42;;;9.10;99.90;;;;;;20798218;28;20034;-44
2021/10/08 03:11:38;;;;;;;7.88;2.63;;;9.20;99.90;;;;;;20777031;28;20046;-44
2021/10/08 03:21:41;;;;;;;6.15;3.15;;;9.10;99.90;;;;;;20775069;28;20410;-44
2021/10/08 03:31:43;;;;;;;4.47;2.03;;;8.90;99.90;;;;;;20731855;28;20033;-44
2021/10/08 03:41:44;;;;;;;4.45;2.00;;;8.90;99.90;;;;;;20751200;28;20045;-44
2021/10/08 03:51:47;;;;;;;4.70;2.08;;;8.80;99.90;;;;;;20807502;28;20127;-44
2021/10/08 04:01:48;;;;;;;5.03;2.00;;;8.70;99.90;;;;;;20794037;28;20030;-44
2021/10/08 04:11:50;;;;;;;5.90;1.38;;;8.50;99.90;;;;;;20781213;28;20054;-43
2021/10/08 04:21:51;;;;;;;3.83;1.60;;;8.50;99.90;;;;;;20770683;28;20038;-44
2021/10/08 04:31:52;;;;;;;4.50;1.50;;;8.40;99.90;;;;;;20762024;28;20053;-44
2021/10/08 04:41:53;;;;;;;4.05;1.60;;;8.40;99.90;;;;;;20741203;28;20048;-44
2021/10/08 04:51:54;;;;;;;3.63;1.33;;;8.20;99.90;;;;;;20779471;28;20056;-44
2021/10/08 05:01:55;;;;;;;3.10;1.30;;;8.10;99.90;;;;;;20796697;28;20046;-44
2021/10/08 05:11:56;;;;;;;3.35;1.30;;;8.00;99.90;;;;;;20796813;28;20048;-44
2021/10/08 05:21:58;;;;;;;4.10;1.70;;;7.90;99.90;;;;;;20793387;28;20556;-43
2021/10/08 05:31:59;;;;;;;5.93;2.40;;;7.90;99.90;;;;;;20812626;28;20056;-44
2021/10/08 05:42:00;;;;;;;4.18;2.00;;;7.80;99.90;;;;;;20775464;28;20040;-44
2021/10/08 05:52:01;;;;;;;4.32;1.83;;;7.70;99.90;;;;;;20780869;28;20057;-44
2021/10/08 06:02:03;;;;;;;4.88;1.80;;;7.80;99.90;;;;;;20779994;28;20052;-44
2021/10/08 06:12:04;;;;;;;4.80;1.65;;;7.70;99.90;;;;;;20784318;28;20392;-43
2021/10/08 06:22:05;;;;;;;4.80;1.77;;;7.60;99.90;;;;;;20785736;28;20537;-43
2021/10/08 06:32:10;;;;;;;3.15;1.10;;;7.60;99.90;;;;;;20802309;28;20037;-43
2021/10/08 06:42:11;;;;;;;5.20;2.28;;;7.70;99.90;;;;;;20795972;28;20038;-43
2021/10/08 06:52:12;;;;;;;4.70;1.75;;;7.70;99.90;;;;;;20738562;28;20045;-44
2021/10/08 07:02:14;;;;;;;4.68;1.55;;;7.70;99.90;;;;;;20755139;28;20060;-44
2021/10/08 07:12:16;;;;;;;4.65;1.98;;;7.70;99.90;;;;;;20731929;28;20453;-43
2021/10/08 07:22:17;;;;;;;7.97;2.20;;;7.80;99.90;;;;;;20792501;28;20188;-44
2021/10/08 07:32:18;;;;;;;6.80;2.72;;;7.80;99.90;;;;;;20814188;28;20048;-44
2021/10/08 07:42:21;;;;;;;6.00;2.83;;;7.80;99.90;;;;;;20809166;28;20040;-43
2021/10/08 07:52:22;;;;;;;8.70;2.60;;;7.90;99.90;;;;;;20794407;28;20051;-43
2021/10/08 08:02:28;;;;;;;7.18;3.22;;;8.10;99.90;;;;;;20757063;28;20088;-44
2021/10/08 08:12:29;;;;;;;8.68;3.53;;;8.30;99.90;;;;;;20755585;28;20037;-44
2021/10/08 08:22:32;;;;;;;11.20;3.78;;;8.50;99.90;;;;;;20708191;28;20103;-43
2021/10/08 08:32:34;;;;;;;12.48;4.38;;;8.70;99.90;;;;;;20784011;28;20047;-44
2021/10/08 08:42:35;;;;;;;13.45;4.90;;;8.90;99.90;;;;;;20804125;28;20127;-43
2021/10/08 08:52:37;;;;;;;12.48;4.88;;;9.20;99.90;;;;;;20806947;28;20486;-43
2021/10/08 09:02:40;;;;;;;9.13;3.53;;;9.50;99.90;;;;;;20786958;28;20048;-44
2021/10/08 09:12:43;;;;;;;14.07;6.45;;;9.80;99.90;;;;;;20779110;28;20132;-44
2021/10/08 09:22:49;;;;;;;19.65;5.28;;;10.00;99.90;;;;;;20778928;28;20041;-44
2021/10/08 09:32:53;;;;;;;20.70;6.53;;;10.20;99.90;;;;;;20743859;28;20226;-44
2021/10/08 09:43:04;;;;;;;20.27;7.95;;;10.50;99.90;;;;;;20796901;28;20495;-44
2021/10/08 09:53:14;;;;;;;19.42;7.35;;;10.80;99.90;;;;;;20792330;28;20053;-44
2021/10/08 10:03:17;;;;;;;21.45;7.50;;;11.00;99.90;;;;;;20810611;28;20040;-44
2021/10/08 10:13:18;;;;;;;19.20;7.38;;;11.10;99.90;;;;;;20810771;28;20459;-44
2021/10/08 10:23:21;;;;;;;16.52;7.00;;;11.30;99.90;;;;;;20785879;28;20131;-44
2021/10/08 10:33:25;;;;;;;19.15;7.13;;;11.60;99.90;;;;;;20767024;28;20037;-44
2021/10/08 10:43:33;;;;;;;18.45;7.75;;;12.10;99.90;;;;;;20761485;28;20049;-44
2021/10/08 10:53:48;;;;;;;15.43;5.30;;;12.70;99.90;;;;;;20789615;28;20039;-44
2021/10/08 11:03:50;;;;;;;17.98;6.43;;;13.10;99.90;;;;;;20801443;28;20060;-44
2021/10/08 11:13:51;;;;;;;13.93;5.32;;;13.70;99.90;;;;;;20806603;28;20088;-44
2021/10/08 11:23:52;;;;;;;13.23;5.63;;;14.50;99.90;;;;;;20784680;28;20078;-44
2021/10/08 11:33:54;;;;;;;14.07;5.45;;;15.30;99.90;;;;;;20777901;28;20140;-44
2021/10/08 11:44:19;;;;;;;11.20;4.85;;;16.10;99.90;;;;;;20768244;28;20076;-44
2021/10/08 11:54:20;;;;;;;9.25;4.53;;;17.40;99.90;;;;;;20759399;28;20041;-44
2021/10/08 12:04:21;;;;;;;9.07;3.90;;;17.50;99.90;;;;;;20782040;28;20038;-44
2021/10/08 12:14:23;;;;;;;8.35;4.00;;;18.00;99.90;;;;;;20807111;28;20478;-45
2021/10/08 12:24:27;;;;;;;9.57;3.00;;;18.20;99.90;;;;;;20800597;28;20029;-44
2021/10/08 12:34:54;;;;;;;11.05;3.75;;;17.60;99.90;;;;;;20794444;28;20051;-44
2021/10/08 12:45:00;;;;;;;8.90;3.88;;;18.00;99.90;;;;;;20749547;28;20128;-44
2021/10/08 12:55:04;;;;;;;7.72;3.38;;;18.70;99.90;;;;;;20762173;28;20049;-44
2021/10/08 13:05:07;;;;;;;7.43;3.50;;;18.90;99.90;;;;;;20757115;28;20053;-45
2021/10/08 13:15:14;;;;;;;7.32;3.15;;;18.90;99.90;;;;;;20779854;28;20049;-45
2021/10/08 13:25:16;;;;;;;7.53;3.70;;;19.30;99.90;;;;;;20806489;28;20037;-45
2021/10/08 13:35:17;;;;;;;6.75;2.92;;;19.80;99.90;;;;;;20797513;28;20042;-45
2021/10/08 13:45:19;;;;;;;6.35;2.58;;;18.90;99.90;;;;;;20811108;28;20084;-44
2021/10/08 13:55:22;;;;;;;4.72;2.05;;;18.00;99.90;;;;;;20778728;28;21016;-44
2021/10/08 14:05:31;;;;;;;5.60;2.22;;;18.60;99.90;;;;;;20768545;28;20048;-45
2021/10/08 14:15:40;;;;;;;6.43;2.00;;;19.30;99.90;;;;;;20765484;28;20037;-45
2021/10/08 14:25:41;;;;;;;3.90;1.50;;;19.90;99.90;;;;;;20784910;28;20041;-45
2021/10/08 14:35:43;;;;;;;3.67;1.55;;;19.80;99.90;;;;;;20812185;28;20452;-45
2021/10/08 14:45:44;;;;;;;3.90;1.50;;;19.20;99.90;;;;;;20808169;28;20033;-45
2021/10/08 14:55:58;;;;;;;2.92;1.20;;;18.60;99.90;;;;;;20790969;28;20046;-44
2021/10/08 15:06:02;;;;;;;2.70;1.00;;;18.20;99.90;;;;;;20794862;28;20525;-44
2021/10/08 15:16:03;;;;;;;4.50;1.40;;;18.00;99.90;;;;;;20765665;28;20045;-44
2021/10/08 15:26:05;;;;;;;2.30;0.98;;;17.70;99.90;;;;;;20767405;28;20664;-45
2021/10/08 15:36:07;;;;;;;3.13;1.08;;;17.40;99.90;;;;;;20770912;28;20431;-44
2021/10/08 15:46:08;;;;;;;2.58;0.98;;;17.00;99.90;;;;;;20803380;28;20056;-44
2021/10/08 15:56:09;;;;;;;2.92;1.27;;;16.70;99.90;;;;;;20817098;28;20049;-44
2021/10/08 16:06:11;;;;;;;2.45;1.02;;;16.50;99.90;;;;;;20804623;28;20396;-44
2021/10/08 16:16:13;;;;;;;2.67;0.95;;;16.30;99.90;;;;;;20753754;28;20060;-44
2021/10/08 16:26:15;;;;;;;3.35;1.00;;;16.10;99.90;;;;;;20735911;28;20399;-44
2021/10/08 16:36:16;;;;;;;2.45;1.20;;;15.70;99.90;;;;;;20776532;28;20677;-44
2021/10/08 16:46:17;;;;;;;3.45;0.82;;;15.30;99.90;;;;;;20776997;28;20049;-44
2021/10/08 16:56:19;;;;;;;2.53;1.02;;;15.00;99.90;;;;;;20792520;28;20038;-44
2021/10/08 17:06:20;;;;;;;2.85;1.10;;;14.60;99.90;;;;;;20813675;28;20041;-44
2021/10/08 17:16:22;;;;;;;3.22;1.65;;;14.30;99.90;;;;;;20814883;28;20080;-43
2021/10/08 17:26:31;;;;;;;3.95;1.80;;;14.00;99.90;;;;;;20789047;28;20042;-43
2021/10/08 17:36:33;;;;;;;4.75;1.55;;;13.80;99.90;;;;;;20780514;28;20045;-43
2021/10/08 17:46:35;;;;;;;3.65;1.95;;;13.60;99.90;;;;;;20784303;28;20065;-43
2021/10/08 17:56:36;;;;;;;5.15;1.90;;;13.50;99.90;;;;;;20756661;28;20406;-43
2021/10/08 18:06:38;;;;;;;3.10;1.60;;;13.20;99.90;;;;;;20791251;28;20042;-44
2021/10/08 18:16:42;;;;;;;4.68;2.30;;;13.00;99.90;;;;;;20794263;28;20426;-43
2021/10/08 18:26:47;;;;;;;8.60;2.30;;;12.80;99.90;;;;;;20807311;28;20049;-44
2021/10/08 18:36:49;;;;;;;5.47;2.42;;;12.70;99.90;;;;;;20803425;28;20102;-43
2021/10/08 18:46:50;;;;;;;5.57;2.75;;;12.60;99.90;;;;;;20780409;28;20456;-43
2021/10/08 18:56:51;;;;;;;8.25;3.55;;;12.50;99.90;;;;;;20779026;28;20503;-43
2021/10/08 19:06:52;;;;;;;6.05;3.03;;;12.40;99.90;;;;;;20776722;28;20391;-43
2021/10/08 19:27:10;;;;;;;7.30;3.50;;;12.20;99.90;;;;;;20796176;28;20049;-43
2021/10/08 19:37:11;;;;;;;8.50;3.40;;;12.20;99.90;;;;;;20817671;28;20380;-43
2021/10/08 19:47:15;;;;;;;9.10;3.75;;;12.00;99.90;;;;;;20798180;28;20503;-44
2021/10/08 19:57:23;;;;;;;8.93;4.60;;;11.90;99.90;;;;;;20781062;28;20033;-43
2021/10/08 20:17:44;;;;;;;9.43;4.63;;;11.90;99.90;;;;;;20763717;28;20048;-43
2021/10/08 20:27:46;;;;;;;8.60;4.40;;;11.80;99.90;;;;;;20780331;28;20038;-43
2021/10/08 20:37:47;;;;;;;10.70;5.45;;;11.70;99.90;;;;;;20807830;28;20128;-43
2021/10/08 20:47:49;;;;;;;11.15;5.32;;;11.60;99.90;;;;;;20811660;28;20054;-43
2021/10/08 20:57:51;;;;;;;8.13;4.20;;;11.50;99.90;;;;;;20806332;28;20099;-43
2021/10/08 21:07:56;;;;;;;11.70;5.18;;;11.50;99.90;;;;;;20755552;28;20046;-43
2021/10/08 21:18:00;;;;;;;8.75;4.85;;;11.30;99.90;;;;;;20778543;28;20435;-43
2021/10/08 21:28:02;;;;;;;16.00;5.53;;;11.30;99.90;;;;;;20786509;28;20646;-43
2021/10/08 21:38:12;;;;;;;15.50;5.65;;;11.30;99.90;;;;;;20794797;28;20037;-43
2021/10/08 21:48:14;;;;;;;11.52;5.25;;;11.20;99.90;;;;;;20802456;28;20049;-43
2021/10/08 21:58:16;;;;;;;11.68;5.68;;;11.10;99.90;;;;;;20796973;28;20027;-43
2021/10/08 22:08:18;;;;;;;9.77;5.45;;;11.00;99.90;;;;;;20801565;28;20052;-43
2021/10/08 22:18:24;;;;;;;17.77;7.25;;;10.90;99.90;;;;;;20792775;28;20133;-43
2021/10/08 22:28:40;;;;;;;12.90;5.95;;;10.80;99.90;;;;;;20770133;28;20041;-43
2021/10/08 22:38:41;;;;;;;12.15;5.43;;;10.80;99.90;;;;;;20786631;28;20092;-43
2021/10/08 22:48:42;;;;;;;14.25;6.32;;;10.90;99.90;;;;;;20770156;28;20045;-43
2021/10/08 22:58:43;;;;;;;10.20;5.03;;;10.80;99.90;;;;;;20805054;28;20529;-43
2021/10/08 23:08:48;;;;;;;11.45;6.03;;;10.80;99.90;;;;;;20818370;28;20497;-43
2021/10/08 23:18:49;;;;;;;11.65;5.18;;;10.80;99.90;;;;;;20808698;28;20043;-43
2021/10/08 23:28:50;;;;;;;19.30;5.82;;;10.80;99.90;;;;;;20786214;28;20155;-43
2021/10/08 23:38:51;;;;;;;15.45;6.15;;;10.70;99.90;;;;;;20745043;28;20056;-43
2021/10/08 23:48:53;;;;;;;13.68;5.63;;;10.70;99.90;;;;;;20763600;28;20119;-43
2021/10/08 23:58:54;;;;;;;9.10;5.13;;;10.60;99.90;;;;;;20762548;28;20522;-43
